createdAt,value
2018-05-02T00:00:40.902Z,36.46
2018-05-02T00:01:40.916Z,36.46
2018-05-02T00:02:40.894Z,36.65
2018-05-02T00:03:40.908Z,36.44
2018-05-02T00:04:40.912Z,36.84
2018-05-02T00:05:40.936Z,36.15
2018-05-02T00:06:40.974Z,36.17
2018-05-02T00:07:40.980Z,35.98
2018-05-02T00:08:41.006Z,35.77
2018-05-02T00:09:41.013Z,36.17
2018-05-02T00:10:41.002Z,36.08
2018-05-02T00:11:40.991Z,36.17
2018-05-02T00:12:40.989Z,36.82
2018-05-02T00:13:41.001Z,36.55
2018-05-02T00:14:41.034Z,36.46
2018-05-02T00:15:41.066Z,36.46
2018-05-02T00:16:41.047Z,36.65
2018-05-02T00:17:41.048Z,36.17
2018-05-02T00:18:41.090Z,36.15
2018-05-02T00:19:41.126Z,36.73
2018-05-02T00:20:41.094Z,36.44
2018-05-02T00:21:41.089Z,36.44
2018-05-02T00:22:41.094Z,36.54
2018-05-02T00:23:41.109Z,36.73
2018-05-02T00:24:41.168Z,36.92
2018-05-02T00:25:41.151Z,36.06
2018-05-02T00:26:41.135Z,36.15
2018-05-02T00:27:41.160Z,36.44
2018-05-02T00:28:41.183Z,37.02
2018-05-02T00:29:41.228Z,36.73
2018-05-02T00:30:41.200Z,37.11
2018-05-02T00:31:41.190Z,37.02
2018-05-02T00:32:41.209Z,37.40
2018-05-02T00:33:41.223Z,37.49
2018-05-02T00:34:41.276Z,37.59
2018-05-02T00:35:41.268Z,37.97
2018-05-02T00:36:41.247Z,37.78
2018-05-02T00:37:41.256Z,37.78
2018-05-02T00:38:41.258Z,38.07
2018-05-02T00:39:41.279Z,37.88
2018-05-02T00:40:41.350Z,38.35
2018-05-02T00:41:41.286Z,38.45
2018-05-02T00:42:41.297Z,38.17
2018-05-02T00:43:41.353Z,37.88
2018-05-02T00:44:41.320Z,38.74
2018-05-02T00:45:41.339Z,38.93
2018-05-02T00:46:41.625Z,38.74
2018-05-02T00:47:41.384Z,39.22
2018-05-02T00:48:41.460Z,39.69
2018-05-02T00:49:41.423Z,39.89
2018-05-02T00:50:41.437Z,40.08
2018-05-02T00:51:41.725Z,40.17
2018-05-02T00:52:41.412Z,40.36
2018-05-02T00:53:41.477Z,40.55
2018-05-02T00:54:41.472Z,40.65
2018-05-02T00:55:41.436Z,41.03
2018-05-02T00:56:41.450Z,40.94
2018-05-02T00:57:41.449Z,40.94
2018-05-02T00:58:41.498Z,40.65
2018-05-02T00:59:41.489Z,40.75
2018-05-02T01:00:41.507Z,41.51
2018-05-02T01:01:41.533Z,41.51
2018-05-02T01:02:41.511Z,42.76
2018-05-02T01:03:41.520Z,43.04
2018-05-02T01:04:41.580Z,43.14
2018-05-02T01:05:41.561Z,43.23
2018-05-02T01:06:41.544Z,43.04
2018-05-02T01:07:41.555Z,43.52
2018-05-02T01:08:41.560Z,43.62
2018-05-02T01:09:41.720Z,43.14
2018-05-02T01:10:41.592Z,43.21
2018-05-02T01:11:41.603Z,43.50
2018-05-02T01:12:41.601Z,43.88
2018-05-02T01:13:41.609Z,43.69
2018-05-02T01:14:41.637Z,43.79
2018-05-02T01:15:41.666Z,44.09
2018-05-02T01:16:41.658Z,44.36
2018-05-02T01:17:41.666Z,44.17
2018-05-02T01:18:41.731Z,44.84
2018-05-02T01:19:41.684Z,44.65
2018-05-02T01:20:41.757Z,44.74
2018-05-02T01:21:41.705Z,44.93
2018-05-02T01:22:41.729Z,45.12
2018-05-02T01:23:41.726Z,45.03
2018-05-02T01:24:41.719Z,45.41
2018-05-02T01:25:41.787Z,45.31
2018-05-02T01:26:41.750Z,45.41
2018-05-02T01:27:41.779Z,45.79
2018-05-02T01:28:41.770Z,45.89
2018-05-02T01:29:41.782Z,45.98
2018-05-02T01:30:41.823Z,46.08
2018-05-02T01:31:41.836Z,46.17
2018-05-02T01:32:41.819Z,45.89
2018-05-02T01:33:41.826Z,45.98
2018-05-02T01:34:41.833Z,45.98
2018-05-02T01:35:41.847Z,46.46
2018-05-02T01:36:41.889Z,46.37
2018-05-02T01:37:41.897Z,46.17
2018-05-02T01:38:41.902Z,46.75
2018-05-02T01:39:41.870Z,47.03
2018-05-02T01:40:41.889Z,47.03
2018-05-02T01:41:41.900Z,47.32
2018-05-02T01:42:41.914Z,47.89
2018-05-02T01:43:41.944Z,47.71
2018-05-02T01:44:41.929Z,47.89
2018-05-02T01:45:41.960Z,47.80
2018-05-02T01:46:41.953Z,47.61
2018-05-02T01:47:41.954Z,48.38
2018-05-02T01:48:42.000Z,47.99
2018-05-02T01:49:41.985Z,48.09
2018-05-02T01:50:41.996Z,48.38
2018-05-02T01:51:42.018Z,48.57
2018-05-02T01:52:42.000Z,48.47
2018-05-02T01:53:42.074Z,48.66
2018-05-02T01:54:42.070Z,48.66
2018-05-02T01:55:42.035Z,48.95
2018-05-02T01:56:42.046Z,49.14
2018-05-02T01:57:42.055Z,49.04
2018-05-02T01:58:42.071Z,48.85
2018-05-02T01:59:42.109Z,48.95
2018-05-02T02:00:42.090Z,49.04
2018-05-02T02:01:42.097Z,49.04
2018-05-02T02:02:42.099Z,49.69
2018-05-02T02:03:42.111Z,49.52
2018-05-02T02:04:42.149Z,49.49
2018-05-02T02:05:42.126Z,49.14
2018-05-02T02:06:42.151Z,49.33
2018-05-02T02:07:42.175Z,49.21
2018-05-02T02:08:42.162Z,49.21
2018-05-02T02:09:42.198Z,49.11
2018-05-02T02:10:42.182Z,49.33
2018-05-02T02:11:42.190Z,49.98
2018-05-02T02:12:42.202Z,49.98
2018-05-02T02:13:42.251Z,49.59
2018-05-02T02:14:42.288Z,49.59
2018-05-02T02:15:42.234Z,50.00
2018-05-02T02:16:42.237Z,49.98
2018-05-02T02:17:42.252Z,49.59
2018-05-02T02:18:42.290Z,49.88
2018-05-02T02:19:42.264Z,49.88
2018-05-02T02:20:42.309Z,49.40
2018-05-02T02:21:42.324Z,49.49
2018-05-02T02:22:42.311Z,49.98
2018-05-02T02:23:42.315Z,50.26
2018-05-02T02:24:42.327Z,49.98
2018-05-02T02:25:42.349Z,50.09
2018-05-02T02:26:42.361Z,50.29
2018-05-02T02:27:42.395Z,50.16
2018-05-02T02:28:42.364Z,50.26
2018-05-02T02:29:42.368Z,50.45
2018-05-02T02:30:42.381Z,50.26
2018-05-02T02:31:42.393Z,50.26
2018-05-02T02:32:42.437Z,50.07
2018-05-02T02:33:42.413Z,50.16
2018-05-02T02:34:42.410Z,50.35
2018-05-02T02:35:42.423Z,50.26
2018-05-02T02:36:42.432Z,49.88
2018-05-02T02:37:42.484Z,50.07
2018-05-02T02:38:42.453Z,49.69
2018-05-02T02:39:42.483Z,49.49
2018-05-02T02:40:42.492Z,49.49
2018-05-02T02:41:42.489Z,49.88
2018-05-02T02:42:42.557Z,49.98
2018-05-02T02:43:42.509Z,49.78
2018-05-02T02:44:42.504Z,49.49
2018-05-02T02:45:42.526Z,49.40
2018-05-02T02:46:42.525Z,49.69
2018-05-02T02:47:42.580Z,48.93
2018-05-02T02:48:42.611Z,48.35
2018-05-02T02:49:42.569Z,48.16
2018-05-02T02:50:42.582Z,48.16
2018-05-02T02:51:42.574Z,48.35
2018-05-02T02:52:42.595Z,48.93
2018-05-02T02:53:42.602Z,48.44
2018-05-02T02:54:42.643Z,46.82
2018-05-02T02:55:42.647Z,46.25
2018-05-02T02:56:42.632Z,45.96
2018-05-02T02:57:42.638Z,45.58
2018-05-02T02:58:42.669Z,45.46
2018-05-02T02:59:42.668Z,45.08
2018-05-02T03:00:42.721Z,44.79
2018-05-02T03:01:42.729Z,44.53
2018-05-02T03:02:42.687Z,43.84
2018-05-02T03:03:42.689Z,43.86
2018-05-02T03:04:42.749Z,43.26
2018-05-02T03:05:42.729Z,43.29
2018-05-02T03:06:42.728Z,43.46
2018-05-02T03:07:42.780Z,43.55
2018-05-02T03:08:42.752Z,43.17
2018-05-02T03:09:42.776Z,43.36
2018-05-02T03:10:42.784Z,42.88
2018-05-02T03:11:42.763Z,43.26
2018-05-02T03:12:42.811Z,43.17
2018-05-02T03:13:42.821Z,43.07
2018-05-02T03:14:42.816Z,42.79
2018-05-02T03:15:42.830Z,42.97
2018-05-02T03:16:42.906Z,42.69
2018-05-02T03:17:42.839Z,43.07
2018-05-02T03:18:42.862Z,43.17
2018-05-02T03:19:42.850Z,43.07
2018-05-02T03:20:42.852Z,42.11
2018-05-02T03:21:42.859Z,43.17
2018-05-02T03:22:42.876Z,43.07
2018-05-02T03:23:42.947Z,43.07
2018-05-02T03:24:42.897Z,43.74
2018-05-02T03:25:42.907Z,43.93
2018-05-02T03:26:42.915Z,43.84
2018-05-02T03:27:42.943Z,43.93
2018-05-02T03:28:42.922Z,43.84
2018-05-02T03:29:42.960Z,44.51
2018-05-02T03:30:42.943Z,44.79
2018-05-02T03:31:42.975Z,45.27
2018-05-02T03:32:42.994Z,45.37
2018-05-02T03:33:42.990Z,45.37
2018-05-02T03:34:43.045Z,45.27
2018-05-02T03:35:43.004Z,45.27
2018-05-02T03:36:43.004Z,45.27
2018-05-02T03:37:43.055Z,45.37
2018-05-02T03:38:43.045Z,45.17
2018-05-02T03:39:43.037Z,45.27
2018-05-02T03:40:43.046Z,45.46
2018-05-02T03:41:43.050Z,45.56
2018-05-02T03:42:43.100Z,45.56
2018-05-02T03:43:43.079Z,45.27
2018-05-02T03:44:43.082Z,45.37
2018-05-02T03:45:43.086Z,45.37
2018-05-02T03:46:43.093Z,45.29
2018-05-02T03:47:43.135Z,45.46
2018-05-02T03:48:43.148Z,45.27
2018-05-02T03:49:43.125Z,45.37
2018-05-02T03:50:43.205Z,45.10
2018-05-02T03:51:43.169Z,45.46
2018-05-02T03:52:43.160Z,45.46
2018-05-02T03:53:43.174Z,45.87
2018-05-02T03:54:43.171Z,45.27
2018-05-02T03:55:43.191Z,45.56
2018-05-02T03:56:43.249Z,45.17
2018-05-02T03:57:43.249Z,45.56
2018-05-02T03:58:43.220Z,45.56
2018-05-02T03:59:43.288Z,45.46
2018-05-02T04:00:43.233Z,45.46
2018-05-02T04:01:43.240Z,45.37
2018-05-02T04:02:43.254Z,45.58
2018-05-02T04:03:43.278Z,45.37
2018-05-02T04:04:43.310Z,45.46
2018-05-02T04:05:43.336Z,45.27
2018-05-02T04:06:43.280Z,45.20
2018-05-02T04:07:43.327Z,45.08
2018-05-02T04:08:43.311Z,45.08
2018-05-02T04:09:43.308Z,45.20
2018-05-02T04:10:43.326Z,45.01
2018-05-02T04:11:43.364Z,44.70
2018-05-02T04:12:43.351Z,44.72
2018-05-02T04:13:43.365Z,44.91
2018-05-02T04:14:43.380Z,44.91
2018-05-02T04:15:43.392Z,44.81
2018-05-02T04:16:43.437Z,44.62
2018-05-02T04:17:43.425Z,44.81
2018-05-02T04:18:43.540Z,45.01
2018-05-02T04:19:43.447Z,44.62
2018-05-02T04:20:43.426Z,44.53
2018-05-02T04:21:43.431Z,44.91
2018-05-02T04:22:43.487Z,43.95
2018-05-02T04:23:43.444Z,43.57
2018-05-02T04:24:43.455Z,43.76
2018-05-02T04:25:43.483Z,43.95
2018-05-02T04:26:43.481Z,43.66
2018-05-02T04:27:43.534Z,43.86
2018-05-02T04:28:43.540Z,43.57
2018-05-02T04:29:43.519Z,43.95
2018-05-02T04:30:43.513Z,43.57
2018-05-02T04:31:43.526Z,43.57
2018-05-02T04:32:43.552Z,43.29
2018-05-02T04:33:43.598Z,43.69
2018-05-02T04:34:43.564Z,43.57
2018-05-02T04:35:43.563Z,43.19
2018-05-02T04:36:43.616Z,42.93
2018-05-02T04:37:43.642Z,42.83
2018-05-02T04:38:43.615Z,42.93
2018-05-02T04:39:43.623Z,42.93
2018-05-02T04:40:43.631Z,42.25
2018-05-02T04:41:43.625Z,42.35
2018-05-02T04:42:43.632Z,41.97
2018-05-02T04:43:43.686Z,42.16
2018-05-02T04:44:43.702Z,41.68
2018-05-02T04:45:43.681Z,41.78
2018-05-02T04:46:43.680Z,40.92
2018-05-02T04:47:43.682Z,40.75
2018-05-02T04:48:43.706Z,40.94
2018-05-02T04:49:43.705Z,40.75
2018-05-02T04:50:43.785Z,40.94
2018-05-02T04:51:43.724Z,40.95
2018-05-02T04:52:43.779Z,40.48
2018-05-02T04:53:43.750Z,40.58
2018-05-02T04:54:43.786Z,40.09
2018-05-02T04:55:43.777Z,39.16
2018-05-02T04:56:43.814Z,38.87
2018-05-02T04:57:43.791Z,38.68
2018-05-02T04:58:43.809Z,38.78
2018-05-02T04:59:43.804Z,38.78
2018-05-02T05:00:43.853Z,38.87
2018-05-02T05:01:43.869Z,38.87
2018-05-02T05:02:43.849Z,38.22
2018-05-02T05:03:43.847Z,38.32
2018-05-02T05:04:43.872Z,38.03
2018-05-02T05:05:43.888Z,38.03
2018-05-02T05:06:43.965Z,37.09
2018-05-02T05:07:43.906Z,36.53
2018-05-02T05:08:43.893Z,35.78
2018-05-02T05:09:43.920Z,35.30
2018-05-02T05:10:43.925Z,34.82
2018-05-02T05:11:44.007Z,33.50
2018-05-02T05:12:43.964Z,33.40
2018-05-02T05:13:43.991Z,33.01
2018-05-02T05:14:43.984Z,32.73
2018-05-02T05:15:43.982Z,32.25
2018-05-02T05:16:44.009Z,31.98
2018-05-02T05:17:44.063Z,31.79
2018-05-02T05:18:44.013Z,31.21
2018-05-02T05:19:44.033Z,30.93
2018-05-02T05:20:44.107Z,30.93
2018-05-02T05:21:44.045Z,30.66
2018-05-02T05:22:44.063Z,30.66
2018-05-02T05:23:44.161Z,30.49
2018-05-02T05:24:44.084Z,29.52
2018-05-02T05:25:44.111Z,29.15
2018-05-02T05:26:44.124Z,29.25
2018-05-02T05:27:44.143Z,29.17
2018-05-02T05:28:44.174Z,29.17
2018-05-02T05:29:44.198Z,29.17
2018-05-02T05:30:44.157Z,29.38
2018-05-02T05:31:44.169Z,28.89
2018-05-02T05:32:44.183Z,27.85
2018-05-02T05:33:44.226Z,27.75
2018-05-02T05:34:44.270Z,27.74
2018-05-02T05:35:44.223Z,28.31
2018-05-02T05:36:44.247Z,28.51
2018-05-02T05:37:44.250Z,28.59
2018-05-02T05:38:44.272Z,28.88
2018-05-02T05:39:44.313Z,28.86
2018-05-02T05:40:44.303Z,29.15
2018-05-02T05:41:44.310Z,29.72
2018-05-02T05:42:44.335Z,29.43
2018-05-02T05:43:44.341Z,30.29
2018-05-02T05:44:44.382Z,30.57
2018-05-02T05:45:44.361Z,30.38
2018-05-02T05:46:44.359Z,30.46
2018-05-02T05:47:44.372Z,31.32
2018-05-02T05:48:44.384Z,31.80
2018-05-02T05:49:44.443Z,31.69
2018-05-02T05:50:44.452Z,31.59
2018-05-02T05:51:44.429Z,32.17
2018-05-02T05:52:44.443Z,32.25
2018-05-02T05:53:44.500Z,32.82
2018-05-02T05:54:44.474Z,33.11
2018-05-02T05:55:44.521Z,33.50
2018-05-02T05:56:44.527Z,33.50
2018-05-02T05:57:44.495Z,33.21
2018-05-02T05:58:44.500Z,33.40
2018-05-02T05:59:44.533Z,34.15
2018-05-02T06:00:44.577Z,33.86
2018-05-02T06:01:44.580Z,33.67
2018-05-02T06:02:44.555Z,33.39
2018-05-02T06:03:44.579Z,33.37
2018-05-02T06:04:44.576Z,34.14
2018-05-02T06:05:44.654Z,34.52
2018-05-02T06:06:44.610Z,33.84
2018-05-02T06:07:44.617Z,33.83
2018-05-02T06:08:44.627Z,34.02
2018-05-02T06:09:44.629Z,34.41
2018-05-02T06:10:44.672Z,34.77
2018-05-02T06:11:46.365Z,34.58
2018-05-02T06:12:44.721Z,35.35
2018-05-02T06:13:44.685Z,35.53
2018-05-02T06:14:44.696Z,35.35
2018-05-02T06:15:44.699Z,36.30
2018-05-02T06:16:44.719Z,36.30
2018-05-02T06:17:44.774Z,35.53
2018-05-02T06:18:44.761Z,35.73
2018-05-02T06:19:44.751Z,36.21
2018-05-02T06:20:44.762Z,36.67
2018-05-02T06:21:44.788Z,36.57
2018-05-02T06:22:44.834Z,36.96
2018-05-02T06:23:44.822Z,36.77
2018-05-02T06:24:44.820Z,36.67
2018-05-02T06:25:44.829Z,37.05
2018-05-02T06:26:44.867Z,37.72
2018-05-02T06:27:44.864Z,38.20
2018-05-02T06:28:44.880Z,37.34
2018-05-02T06:29:44.898Z,37.07
2018-05-02T06:30:44.863Z,36.96
2018-05-02T06:31:44.941Z,37.26
2018-05-02T06:32:44.886Z,38.03
2018-05-02T06:33:44.908Z,37.26
2018-05-02T06:34:44.904Z,37.36
2018-05-02T06:35:44.927Z,37.65
2018-05-02T06:36:44.988Z,36.40
2018-05-02T06:37:45.020Z,36.59
2018-05-02T06:38:44.954Z,36.02
2018-05-02T06:39:44.972Z,35.63
2018-05-02T06:40:44.985Z,35.83
2018-05-02T06:41:44.988Z,36.30
2018-05-02T06:42:45.039Z,35.92
2018-05-02T06:43:45.019Z,36.02
2018-05-02T06:44:45.060Z,36.21
2018-05-02T06:45:45.039Z,36.49
2018-05-02T06:46:45.046Z,36.30
2018-05-02T06:47:45.097Z,36.49
2018-05-02T06:48:45.065Z,36.86
2018-05-02T06:49:45.089Z,36.19
2018-05-02T06:50:45.131Z,35.90
2018-05-02T06:51:45.104Z,36.29
2018-05-02T06:52:45.112Z,36.69
2018-05-02T06:53:45.121Z,36.57
2018-05-02T06:54:45.131Z,35.61
2018-05-02T06:55:45.219Z,35.71
2018-05-02T06:56:45.161Z,36.11
2018-05-02T06:57:45.206Z,36.59
2018-05-02T06:58:45.219Z,37.16
2018-05-02T06:59:45.270Z,37.26
2018-05-02T07:00:45.220Z,36.59
2018-05-02T07:01:45.250Z,36.88
2018-05-02T07:02:45.241Z,36.79
2018-05-02T07:03:45.275Z,36.79
2018-05-02T07:04:45.260Z,36.98
2018-05-02T07:05:45.308Z,37.07
2018-05-02T07:06:45.293Z,36.59
2018-05-02T07:07:45.276Z,36.02
2018-05-02T07:08:45.298Z,35.63
2018-05-02T07:09:45.302Z,35.83
2018-05-02T07:10:45.340Z,35.73
2018-05-02T07:11:45.352Z,36.02
2018-05-02T07:12:45.343Z,35.73
2018-05-02T07:13:45.395Z,35.92
2018-05-02T07:14:45.363Z,36.11
2018-05-02T07:15:45.399Z,36.30
2018-05-02T07:16:45.384Z,36.59
2018-05-02T07:17:45.411Z,36.49
2018-05-02T07:18:45.414Z,36.69
2018-05-02T07:19:45.415Z,37.36
2018-05-02T07:20:45.467Z,36.49
2018-05-02T07:21:45.426Z,36.13
2018-05-02T07:22:45.440Z,36.71
2018-05-02T07:23:45.449Z,37.26
2018-05-02T07:24:45.480Z,37.28
2018-05-02T07:25:45.516Z,37.85
2018-05-02T07:26:45.528Z,36.61
2018-05-02T07:27:45.541Z,36.99
2018-05-02T07:28:45.513Z,36.22
2018-05-02T07:29:45.582Z,36.61
2018-05-02T07:30:45.541Z,36.51
2018-05-02T07:31:45.544Z,36.42
2018-05-02T07:32:45.758Z,35.57
2018-05-02T07:33:45.617Z,35.96
2018-05-02T07:34:45.586Z,36.51
2018-05-02T07:35:45.608Z,36.24
2018-05-02T07:36:45.607Z,35.84
2018-05-02T07:37:45.663Z,35.67
2018-05-02T07:38:45.631Z,35.96
2018-05-02T07:39:45.665Z,36.53
2018-05-02T07:40:45.657Z,36.53
2018-05-02T07:41:45.656Z,36.72
2018-05-02T07:42:45.699Z,36.72
2018-05-02T07:43:45.723Z,36.53
2018-05-02T07:44:45.690Z,36.93
2018-05-02T07:45:45.701Z,36.05
2018-05-02T07:46:46.017Z,35.21
2018-05-02T07:47:45.738Z,34.23
2018-05-02T07:48:45.787Z,34.71
2018-05-02T07:49:45.744Z,34.90
2018-05-02T07:50:45.791Z,34.33
2018-05-02T07:51:45.782Z,34.42
2018-05-02T07:52:45.791Z,34.61
2018-05-02T07:53:45.839Z,33.37
2018-05-02T07:54:45.857Z,34.02
2018-05-02T07:55:45.825Z,34.61
2018-05-02T07:56:45.824Z,34.90
2018-05-02T07:57:45.864Z,33.73
2018-05-02T07:58:45.859Z,33.45
2018-05-02T07:59:45.915Z,33.54
2018-05-02T08:00:45.928Z,33.54
2018-05-02T08:01:45.913Z,34.12
2018-05-02T08:02:45.905Z,34.12
2018-05-02T08:03:45.924Z,34.31
2018-05-02T08:04:45.922Z,34.41
2018-05-02T08:05:45.963Z,34.81
2018-05-02T08:06:45.983Z,34.71
2018-05-02T08:07:45.970Z,34.81
2018-05-02T08:08:46.003Z,34.42
2018-05-02T08:09:45.981Z,33.56
2018-05-02T08:10:46.037Z,34.04
2018-05-02T08:11:46.004Z,34.33
2018-05-02T08:12:46.037Z,34.23
2018-05-02T08:13:46.028Z,34.23
2018-05-02T08:14:46.033Z,34.61
2018-05-02T08:15:46.189Z,34.90
2018-05-02T08:16:46.075Z,34.53
2018-05-02T08:17:46.080Z,34.61
2018-05-02T08:18:46.093Z,34.73
2018-05-02T08:19:46.181Z,34.73
2018-05-02T08:20:46.110Z,34.15
2018-05-02T08:21:46.162Z,33.77
2018-05-02T08:22:46.167Z,33.86
2018-05-02T08:23:46.164Z,33.09
2018-05-02T08:24:46.227Z,33.48
2018-05-02T08:25:46.176Z,33.58
2018-05-02T08:26:46.220Z,33.48
2018-05-02T08:27:46.224Z,33.29
2018-05-02T08:28:46.211Z,33.77
2018-05-02T08:29:46.217Z,33.84
2018-05-02T08:30:46.245Z,33.86
2018-05-02T08:31:46.236Z,33.96
2018-05-02T08:32:46.310Z,34.06
2018-05-02T08:33:46.326Z,33.96
2018-05-02T08:34:46.308Z,33.96
2018-05-02T08:35:46.288Z,33.48
2018-05-02T08:36:46.308Z,33.37
2018-05-02T08:37:46.330Z,33.39
2018-05-02T08:38:46.332Z,33.19
2018-05-02T08:39:46.367Z,32.42
2018-05-02T08:40:46.362Z,32.42
2018-05-02T08:41:46.376Z,32.31
2018-05-02T08:42:46.378Z,32.52
2018-05-02T08:43:46.418Z,33.48
2018-05-02T08:44:46.398Z,33.09
2018-05-02T08:45:46.428Z,33.29
2018-05-02T08:46:46.420Z,33.48
2018-05-02T08:47:46.444Z,33.77
2018-05-02T08:48:46.469Z,34.34
2018-05-02T08:49:46.453Z,34.73
2018-05-02T08:50:46.460Z,34.34
2018-05-02T08:51:46.511Z,33.94
2018-05-02T08:52:46.502Z,33.86
2018-05-02T08:53:46.506Z,33.84
2018-05-02T08:54:46.554Z,33.77
2018-05-02T08:55:46.517Z,34.06
2018-05-02T08:56:46.563Z,34.44
2018-05-02T08:57:46.574Z,34.34
2018-05-02T08:58:46.558Z,33.75
2018-05-02T08:59:46.594Z,33.86
2018-05-02T09:00:46.583Z,34.14
2018-05-02T09:01:46.610Z,34.23
2018-05-02T09:02:46.649Z,34.33
2018-05-02T09:03:46.692Z,34.61
2018-05-02T09:04:46.626Z,34.42
2018-05-02T09:05:46.647Z,34.90
2018-05-02T09:06:46.649Z,35.67
2018-05-02T09:07:46.765Z,35.21
2018-05-02T09:08:46.716Z,35.57
2018-05-02T09:09:46.693Z,34.73
2018-05-02T09:10:46.813Z,34.44
2018-05-02T09:11:46.709Z,34.73
2018-05-02T09:12:46.720Z,34.63
2018-05-02T09:13:46.733Z,34.53
2018-05-02T09:14:46.760Z,34.44
2018-05-02T09:15:46.766Z,35.40
2018-05-02T09:16:46.809Z,35.21
2018-05-02T09:17:46.802Z,35.40
2018-05-02T09:18:46.817Z,34.73
2018-05-02T09:19:46.872Z,35.11
2018-05-02T09:20:46.833Z,34.44
2018-05-02T09:21:46.833Z,34.63
2018-05-02T09:22:46.846Z,34.53
2018-05-02T09:23:46.850Z,34.53
2018-05-02T09:24:46.895Z,34.53
2018-05-02T09:25:46.941Z,33.48
2018-05-02T09:26:46.880Z,33.58
2018-05-02T09:27:46.903Z,33.59
2018-05-02T09:28:46.923Z,33.21
2018-05-02T09:29:46.992Z,33.21
2018-05-02T09:30:46.940Z,33.40
2018-05-02T09:31:46.955Z,33.21
2018-05-02T09:32:46.951Z,33.50
2018-05-02T09:33:46.971Z,33.59
2018-05-02T09:34:47.032Z,33.40
2018-05-02T09:35:46.994Z,32.82
2018-05-02T09:36:47.004Z,32.25
2018-05-02T09:37:47.024Z,31.66
2018-05-02T09:38:47.064Z,31.37
2018-05-02T09:39:47.040Z,31.37
2018-05-02T09:40:47.070Z,31.37
2018-05-02T09:41:47.075Z,31.37
2018-05-02T09:42:47.087Z,31.85
2018-05-02T09:43:47.195Z,31.95
2018-05-02T09:44:47.102Z,31.85
2018-05-02T09:45:47.107Z,31.75
2018-05-02T09:46:47.118Z,31.85
2018-05-02T09:47:47.130Z,31.75
2018-05-02T09:48:47.204Z,31.95
2018-05-02T09:49:47.155Z,32.42
2018-05-02T09:50:47.176Z,32.23
2018-05-02T09:51:47.205Z,32.23
2018-05-02T09:52:47.203Z,32.14
2018-05-02T09:53:47.244Z,32.14
2018-05-02T09:54:47.219Z,32.23
2018-05-02T09:55:47.229Z,32.14
2018-05-02T09:56:47.245Z,32.04
2018-05-02T09:57:47.256Z,32.62
2018-05-02T09:58:47.311Z,32.90
2018-05-02T09:59:47.276Z,33.29
2018-05-02T10:00:47.285Z,33.37
2018-05-02T10:01:47.312Z,33.58
2018-05-02T10:02:47.357Z,33.58
2018-05-02T10:03:47.391Z,33.47
2018-05-02T10:04:47.345Z,33.08
2018-05-02T10:05:47.358Z,33.08
2018-05-02T10:06:47.355Z,33.08
2018-05-02T10:07:47.362Z,33.17
2018-05-02T10:08:47.420Z,33.75
2018-05-02T10:09:47.394Z,33.84
2018-05-02T10:10:47.457Z,34.04
2018-05-02T10:11:47.426Z,33.94
2018-05-02T10:12:47.489Z,34.33
2018-05-02T10:13:47.455Z,34.23
2018-05-02T10:14:47.458Z,34.23
2018-05-02T10:15:47.502Z,34.33
2018-05-02T10:16:47.504Z,34.81
2018-05-02T10:17:47.487Z,34.61
2018-05-02T10:18:47.506Z,34.50
2018-05-02T10:19:47.508Z,34.50
2018-05-02T10:20:47.528Z,34.59
2018-05-02T10:21:47.563Z,34.88
2018-05-02T10:22:47.578Z,35.17
2018-05-02T10:23:47.560Z,35.65
2018-05-02T10:24:47.577Z,35.17
2018-05-02T10:25:47.579Z,35.75
2018-05-02T10:26:47.586Z,35.65
2018-05-02T10:27:47.627Z,35.46
2018-05-02T10:28:47.641Z,35.84
2018-05-02T10:29:47.654Z,35.84
2018-05-02T10:30:47.636Z,35.55
2018-05-02T10:31:47.708Z,35.75
2018-05-02T10:32:47.657Z,35.94
2018-05-02T10:33:47.662Z,35.84
2018-05-02T10:34:47.721Z,35.94
2018-05-02T10:35:47.704Z,36.04
2018-05-02T10:36:47.706Z,36.22
2018-05-02T10:37:47.725Z,36.51
2018-05-02T10:38:47.730Z,36.61
2018-05-02T10:39:47.817Z,36.61
2018-05-02T10:40:47.739Z,36.61
2018-05-02T10:41:47.757Z,36.61
2018-05-02T10:42:47.775Z,36.80
2018-05-02T10:43:47.771Z,36.42
2018-05-02T10:44:47.816Z,36.63
2018-05-02T10:45:47.823Z,36.61
2018-05-02T10:46:47.840Z,36.71
2018-05-02T10:47:47.817Z,36.53
2018-05-02T10:48:47.828Z,36.53
2018-05-02T10:49:47.880Z,36.53
2018-05-02T10:51:13.507Z,36.72
2018-05-02T10:51:47.932Z,36.63
2018-05-02T10:52:47.890Z,36.53
2018-05-02T10:53:47.920Z,36.63
2018-05-02T10:54:47.911Z,36.72
2018-05-02T10:55:47.932Z,36.63
2018-05-02T10:56:47.936Z,36.72
2018-05-02T10:57:48.009Z,36.44
2018-05-02T10:58:47.963Z,36.34
2018-05-02T10:59:47.970Z,36.53
2018-05-02T11:00:47.978Z,36.53
2018-05-02T11:01:47.991Z,36.82
2018-05-02T11:02:48.041Z,37.20
2018-05-02T11:03:48.064Z,36.82
2018-05-02T11:04:48.026Z,36.91
2018-05-02T11:05:48.039Z,36.46
2018-05-02T11:06:48.064Z,36.34
2018-05-02T11:07:48.126Z,36.24
2018-05-02T11:08:48.091Z,36.15
2018-05-02T11:09:48.085Z,36.05
2018-05-02T11:10:48.097Z,36.05
2018-05-02T11:11:48.112Z,36.63
2018-05-02T11:12:48.185Z,36.44
2018-05-02T11:13:48.140Z,36.24
2018-05-02T11:14:48.157Z,36.24
2018-05-02T11:15:48.164Z,35.48
2018-05-02T11:16:48.172Z,35.94
2018-05-02T11:17:48.210Z,35.96
2018-05-02T11:18:48.246Z,36.15
2018-05-02T11:19:48.214Z,36.13
2018-05-02T11:20:48.215Z,36.71
2018-05-02T11:21:48.232Z,36.42
2018-05-02T11:22:48.238Z,36.44
2018-05-02T11:23:48.259Z,36.44
2018-05-02T11:24:48.304Z,36.44
2018-05-02T11:25:48.270Z,36.72
2018-05-02T11:26:48.293Z,36.72
2018-05-02T11:27:48.312Z,36.82
2018-05-02T11:28:48.304Z,36.82
2018-05-02T11:29:48.358Z,36.72
2018-05-02T11:30:48.386Z,36.72
2018-05-02T11:31:48.339Z,36.91
2018-05-02T11:32:48.350Z,37.97
2018-05-02T11:33:48.363Z,37.95
2018-05-02T11:34:48.444Z,38.16
2018-05-02T11:35:48.445Z,37.57
2018-05-02T11:36:48.402Z,37.57
2018-05-02T11:37:48.410Z,38.05
2018-05-02T11:38:48.431Z,38.05
2018-05-02T11:39:48.443Z,37.95
2018-05-02T11:40:48.499Z,38.24
2018-05-02T11:41:48.466Z,38.43
2018-05-02T11:42:48.464Z,37.85
2018-05-02T11:43:48.488Z,38.53
2018-05-02T11:44:48.486Z,38.14
2018-05-02T11:45:48.507Z,38.34
2018-05-02T11:46:48.576Z,38.43
2018-05-02T11:47:48.541Z,38.34
2018-05-02T11:48:48.541Z,38.53
2018-05-02T11:49:48.545Z,38.53
2018-05-02T11:50:48.560Z,38.24
2018-05-02T11:51:48.625Z,38.05
2018-05-02T11:52:48.594Z,38.43
2018-05-02T11:53:48.592Z,38.53
2018-05-02T11:54:48.604Z,38.34
2018-05-02T11:55:48.613Z,38.72
2018-05-02T11:56:48.680Z,38.62
2018-05-02T11:57:48.703Z,38.62
2018-05-02T11:58:48.715Z,38.91
2018-05-02T11:59:48.671Z,39.29
2018-05-02T12:00:48.683Z,39.29
2018-05-02T12:01:48.691Z,39.20
2018-05-02T12:02:48.701Z,39.39
2018-05-02T12:03:48.721Z,39.48
2018-05-02T12:04:48.760Z,39.39
2018-05-02T12:05:48.725Z,39.39
2018-05-02T12:06:48.743Z,39.77
2018-05-02T12:07:48.752Z,39.97
2018-05-02T12:08:48.803Z,39.85
2018-05-02T12:09:48.776Z,40.33
2018-05-02T12:10:48.802Z,40.06
2018-05-02T12:11:48.801Z,40.35
2018-05-02T12:12:48.813Z,40.64
2018-05-02T12:13:48.850Z,40.23
2018-05-02T12:14:48.852Z,40.54
2018-05-02T12:15:48.880Z,40.54
2018-05-02T12:16:48.856Z,40.44
2018-05-02T12:17:48.872Z,40.64
2018-05-02T12:18:48.877Z,41.11
2018-05-02T12:19:48.889Z,40.73
2018-05-02T12:20:48.990Z,41.02
2018-05-02T12:21:48.923Z,40.83
2018-05-02T12:22:48.924Z,41.11
2018-05-02T12:23:48.930Z,41.21
2018-05-02T12:24:48.948Z,41.60
2018-05-02T12:25:48.987Z,40.92
2018-05-02T12:26:49.015Z,41.50
2018-05-02T12:27:49.018Z,41.21
2018-05-02T12:28:48.985Z,41.02
2018-05-02T12:29:49.001Z,40.83
2018-05-02T12:30:49.014Z,41.50
2018-05-02T12:31:49.053Z,41.69
2018-05-02T12:32:49.049Z,41.31
2018-05-02T12:33:49.047Z,41.88
2018-05-02T12:34:49.071Z,41.21
2018-05-02T12:35:49.084Z,42.07
2018-05-02T12:36:49.153Z,41.69
2018-05-02T12:37:49.088Z,41.69
2018-05-02T12:38:49.100Z,41.50
2018-05-02T12:39:49.109Z,41.78
2018-05-02T12:40:49.128Z,41.88
2018-05-02T12:41:49.151Z,41.88
2018-05-02T12:42:49.205Z,42.27
2018-05-02T12:43:49.175Z,42.07
2018-05-02T12:44:49.173Z,42.55
2018-05-02T12:45:49.187Z,42.55
2018-05-02T12:46:49.193Z,43.23
2018-05-02T12:47:49.215Z,42.84
2018-05-02T12:48:49.261Z,43.03
2018-05-02T12:49:49.228Z,43.01
2018-05-02T12:50:49.236Z,42.91
2018-05-02T12:51:49.248Z,42.94
2018-05-02T12:52:49.260Z,43.30